createdAt,value
2023-09-27T00:00:20.889Z,7.80
2023-09-27T00:01:20.979Z,8.40
2023-09-27T00:02:20.944Z,8.60
2023-09-27T00:03:20.937Z,8.70
2023-09-27T00:04:20.858Z,9.60
2023-09-27T00:05:21.593Z,9.30
2023-09-27T00:06:20.863Z,9.60
2023-09-27T00:07:20.880Z,9.40
2023-09-27T00:08:20.874Z,9.80
2023-09-27T00:09:20.822Z,10.10
2023-09-27T00:10:20.838Z,11.00
2023-09-27T00:11:20.966Z,10.90
2023-09-27T00:12:20.791Z,11.00
2023-09-27T00:13:20.832Z,11.00
2023-09-27T00:14:20.790Z,10.90
2023-09-27T00:15:20.805Z,11.10
2023-09-27T00:16:20.840Z,11.30
2023-09-27T00:17:20.789Z,11.30
2023-09-27T00:18:20.794Z,11.30
2023-09-27T00:19:20.738Z,10.90
2023-09-27T00:20:20.810Z,9.80
2023-09-27T00:21:20.748Z,10.40
2023-09-27T00:22:20.764Z,10.30
2023-09-27T00:23:20.811Z,12.30
2023-09-27T00:24:20.716Z,12.20
2023-09-27T00:25:20.728Z,12.70
2023-09-27T00:26:20.736Z,12.40
2023-09-27T00:27:20.674Z,13.20
2023-09-27T00:28:21.668Z,12.00
2023-09-27T00:29:20.714Z,11.90
2023-09-27T00:30:20.751Z,12.40
2023-09-27T00:31:20.691Z,12.60
2023-09-27T00:32:20.663Z,12.40
2023-09-27T00:33:20.704Z,12.50
2023-09-27T00:34:20.668Z,12.00
2023-09-27T00:35:21.018Z,11.30
2023-09-27T00:36:20.636Z,10.70
2023-09-27T00:37:20.623Z,12.50
2023-09-27T00:38:20.666Z,12.90
2023-09-27T00:39:20.637Z,13.10
2023-09-27T00:40:20.585Z,12.90
2023-09-27T00:41:20.563Z,12.40
2023-09-27T00:42:20.572Z,12.30
2023-09-27T00:43:20.560Z,11.10
2023-09-27T00:44:20.571Z,10.30
2023-09-27T00:45:20.537Z,10.10
2023-09-27T00:46:20.582Z,10.20
2023-09-27T00:47:20.543Z,10.20
2023-09-27T00:48:20.534Z,10.20
2023-09-27T00:49:20.530Z,10.60
2023-09-27T00:50:20.635Z,10.20
2023-09-27T00:51:20.496Z,10.30
2023-09-27T00:52:20.494Z,11.10
2023-09-27T00:53:20.523Z,11.50
2023-09-27T00:54:20.492Z,11.90
2023-09-27T00:55:20.526Z,12.00
2023-09-27T00:56:20.453Z,13.60
2023-09-27T00:57:20.444Z,14.30
2023-09-27T00:58:20.638Z,14.00
2023-09-27T00:59:20.470Z,13.00
2023-09-27T01:00:20.411Z,13.40
2023-09-27T01:01:20.474Z,13.10
2023-09-27T01:02:20.424Z,13.40
2023-09-27T01:03:20.590Z,10.90
2023-09-27T01:04:20.395Z,10.80
2023-09-27T01:05:20.489Z,10.10
2023-09-27T01:06:20.394Z,9.90
2023-09-27T01:07:20.423Z,11.00
2023-09-27T01:08:20.444Z,10.30
2023-09-27T01:09:20.401Z,11.00
2023-09-27T01:10:20.383Z,11.60
2023-09-27T01:11:20.364Z,11.50
2023-09-27T01:12:20.355Z,11.40
2023-09-27T01:13:20.341Z,11.20
2023-09-27T01:14:20.337Z,11.30
2023-09-27T01:15:20.320Z,11.20
2023-09-27T01:16:20.329Z,11.40
2023-09-27T01:17:20.346Z,12.10
2023-09-27T01:18:20.329Z,12.70
2023-09-27T01:19:20.278Z,11.90
2023-09-27T01:20:20.351Z,12.10
2023-09-27T01:21:20.266Z,12.00
2023-09-27T01:22:20.309Z,11.80
2023-09-27T01:23:20.308Z,11.90
2023-09-27T01:24:20.237Z,11.40
2023-09-27T01:25:20.271Z,11.10
2023-09-27T01:26:20.304Z,10.90
2023-09-27T01:27:20.252Z,10.90
2023-09-27T01:28:20.209Z,11.60
2023-09-27T01:29:20.247Z,12.50
2023-09-27T01:30:20.187Z,13.40
2023-09-27T01:31:20.257Z,12.20
2023-09-27T01:32:20.282Z,11.40
2023-09-27T01:33:20.244Z,11.90
2023-09-27T01:34:20.189Z,11.90
2023-09-27T01:35:20.283Z,12.00
2023-09-27T01:36:20.208Z,12.30
2023-09-27T01:37:20.146Z,13.50
2023-09-27T01:38:20.183Z,14.10
2023-09-27T01:39:20.130Z,13.40
2023-09-27T01:40:20.116Z,12.50
2023-09-27T01:41:20.171Z,12.60
2023-09-27T01:42:20.100Z,11.80
2023-09-27T01:43:20.100Z,12.90
2023-09-27T01:44:20.110Z,13.20
2023-09-27T01:45:20.105Z,13.60
2023-09-27T01:46:20.122Z,13.00
2023-09-27T01:47:20.111Z,11.80
2023-09-27T01:48:20.105Z,12.10
2023-09-27T01:49:20.046Z,12.50
2023-09-27T01:50:20.096Z,12.90
2023-09-27T01:51:20.040Z,12.70
2023-09-27T01:52:20.019Z,13.40
2023-09-27T01:53:21.100Z,12.70
2023-09-27T01:54:20.027Z,12.40
2023-09-27T01:55:20.038Z,11.80
2023-09-27T01:56:20.175Z,12.40
2023-09-27T01:57:21.105Z,12.10
2023-09-27T01:58:19.989Z,12.50
2023-09-27T01:59:20.015Z,12.10
2023-09-27T02:00:20.015Z,12.00
2023-09-27T02:01:19.995Z,12.70
2023-09-27T02:02:20.056Z,12.40
2023-09-27T02:03:20.062Z,11.90
2023-09-27T02:04:19.961Z,12.10
2023-09-27T02:05:19.987Z,13.60
2023-09-27T02:06:19.925Z,13.80
2023-09-27T02:07:19.911Z,13.70
2023-09-27T02:08:19.940Z,14.70
2023-09-27T02:09:19.921Z,14.70
2023-09-27T02:10:19.886Z,15.90
2023-09-27T02:11:19.920Z,18.20
2023-09-27T02:12:19.885Z,18.70
2023-09-27T02:13:19.916Z,19.30
2023-09-27T02:14:19.937Z,18.20
2023-09-27T02:15:19.854Z,17.20
2023-09-27T02:16:19.906Z,15.90
2023-09-27T02:17:19.832Z,16.80
2023-09-27T02:18:19.871Z,15.70
2023-09-27T02:19:19.850Z,15.80
2023-09-27T02:20:19.859Z,16.50
2023-09-27T02:21:19.803Z,16.20
2023-09-27T02:22:19.804Z,16.80
2023-09-27T02:23:19.868Z,16.80
2023-09-27T02:24:19.774Z,16.80
2023-09-27T02:25:19.787Z,15.00
2023-09-27T02:26:19.804Z,15.30
2023-09-27T02:27:19.755Z,14.30
2023-09-27T02:28:19.787Z,14.70
2023-09-27T02:29:19.776Z,15.20
2023-09-27T02:30:19.770Z,14.70
2023-09-27T02:31:19.748Z,13.80
2023-09-27T02:32:19.769Z,13.60
2023-09-27T02:33:19.771Z,13.80
2023-09-27T02:34:19.707Z,12.80
2023-09-27T02:35:52.477Z,13.80
2023-09-27T02:36:19.690Z,13.00
2023-09-27T02:37:19.719Z,12.90
2023-09-27T02:38:19.714Z,13.10
2023-09-27T02:39:19.683Z,12.80
2023-09-27T02:40:19.662Z,13.20
2023-09-27T02:41:19.690Z,12.50
2023-09-27T02:42:19.668Z,12.40
2023-09-27T02:43:19.636Z,11.70
2023-09-27T02:44:19.668Z,11.20
2023-09-27T02:45:19.641Z,10.90
2023-09-27T02:46:19.615Z,11.00
2023-09-27T02:47:19.690Z,11.00
2023-09-27T02:48:19.640Z,11.20
2023-09-27T02:49:19.629Z,11.30
2023-09-27T02:50:19.614Z,11.30
2023-09-27T02:51:19.623Z,11.00
2023-09-27T02:52:19.602Z,11.30
2023-09-27T02:53:19.613Z,11.60
2023-09-27T02:54:19.569Z,11.00
2023-09-27T02:55:19.554Z,11.70
2023-09-27T02:56:19.645Z,11.10
2023-09-27T02:57:19.541Z,11.10
2023-09-27T02:58:19.535Z,10.80
2023-09-27T02:59:19.606Z,10.70
2023-09-27T03:00:19.514Z,10.90
2023-09-27T03:01:19.564Z,10.70
2023-09-27T03:02:19.529Z,11.00
2023-09-27T03:03:19.542Z,11.10
2023-09-27T03:04:19.480Z,11.10
2023-09-27T03:05:19.571Z,11.50
2023-09-27T03:06:19.495Z,11.20
2023-09-27T03:07:19.470Z,12.10
2023-09-27T03:08:19.500Z,12.80
2023-09-27T03:09:19.445Z,12.20
2023-09-27T03:10:19.534Z,11.80
2023-09-27T03:11:19.491Z,11.10
2023-09-27T03:12:19.439Z,11.50
2023-09-27T03:13:19.425Z,11.50
2023-09-27T03:14:19.474Z,11.70
2023-09-27T03:15:19.425Z,12.20
2023-09-27T03:16:19.443Z,13.00
2023-09-27T03:17:19.409Z,13.20
2023-09-27T03:18:19.424Z,13.60
2023-09-27T03:19:19.368Z,13.50
2023-09-27T03:20:19.414Z,13.10
2023-09-27T03:21:19.349Z,13.60
2023-09-27T03:22:19.342Z,13.20
2023-09-27T03:23:19.345Z,13.40
2023-09-27T03:24:19.348Z,12.80
2023-09-27T03:25:19.340Z,13.50
2023-09-27T03:26:19.340Z,12.90
2023-09-27T03:27:19.302Z,13.30
2023-09-27T03:28:19.288Z,13.60
2023-09-27T03:29:19.350Z,11.60
2023-09-27T03:30:19.283Z,11.40
2023-09-27T03:31:19.309Z,13.90
2023-09-27T03:32:19.280Z,12.50
2023-09-27T03:33:19.289Z,12.00
2023-09-27T03:34:19.285Z,13.10
2023-09-27T03:35:19.296Z,13.40
2023-09-27T03:36:19.230Z,13.20
2023-09-27T03:37:19.276Z,12.10
2023-09-27T03:38:19.286Z,13.50
2023-09-27T03:39:19.230Z,13.80
2023-09-27T03:40:19.207Z,12.90
2023-09-27T03:41:19.241Z,14.10
2023-09-27T03:42:19.183Z,14.80
2023-09-27T03:43:19.196Z,14.50
2023-09-27T03:44:19.242Z,14.40
2023-09-27T03:45:19.157Z,15.10
2023-09-27T03:46:19.282Z,13.80
2023-09-27T03:47:19.231Z,14.20
2023-09-27T03:48:19.332Z,14.90
2023-09-27T03:49:19.132Z,15.50
2023-09-27T03:50:19.205Z,15.80
2023-09-27T03:51:19.120Z,15.10
2023-09-27T03:52:19.132Z,15.90
2023-09-27T03:53:19.151Z,14.20
2023-09-27T03:54:19.100Z,13.90
2023-09-27T03:55:19.088Z,16.20
2023-09-27T03:56:19.108Z,15.80
2023-09-27T03:57:19.116Z,15.60
2023-09-27T03:58:19.134Z,16.50
2023-09-27T03:59:19.110Z,17.60
2023-09-27T04:00:19.146Z,19.30
2023-09-27T04:01:19.041Z,19.90
2023-09-27T04:02:20.140Z,17.60
2023-09-27T04:03:19.156Z,20.10
2023-09-27T04:04:19.053Z,17.90
2023-09-27T04:05:19.032Z,17.60
2023-09-27T04:06:19.036Z,17.10
2023-09-27T04:07:19.028Z,15.80
2023-09-27T04:08:19.061Z,15.70
2023-09-27T04:09:18.987Z,15.70
2023-09-27T04:10:18.972Z,15.20
2023-09-27T04:11:19.015Z,14.90
2023-09-27T04:12:18.966Z,15.30
2023-09-27T04:13:18.958Z,15.40
2023-09-27T04:14:18.988Z,15.00
2023-09-27T04:15:18.942Z,15.30
2023-09-27T04:16:18.981Z,16.20
2023-09-27T04:17:18.986Z,15.80
2023-09-27T04:18:18.939Z,15.10
2023-09-27T04:19:18.906Z,14.80
2023-09-27T04:20:18.981Z,14.70
2023-09-27T04:21:18.909Z,14.40
2023-09-27T04:22:18.907Z,14.10
2023-09-27T04:23:18.918Z,13.60
2023-09-27T04:24:18.871Z,14.20
2023-09-27T04:25:18.899Z,13.60
2023-09-27T04:26:18.915Z,13.60
2023-09-27T04:27:18.844Z,13.30
2023-09-27T04:28:18.835Z,13.50
2023-09-27T04:29:18.836Z,14.00
2023-09-27T04:30:18.851Z,13.00
2023-09-27T04:31:18.841Z,13.30
2023-09-27T04:32:18.889Z,12.70
2023-09-27T04:33:18.820Z,12.60
2023-09-27T04:34:18.800Z,19.50
2023-09-27T04:35:18.855Z,18.60
2023-09-27T04:36:18.865Z,18.50
2023-09-27T04:37:18.764Z,18.90
2023-09-27T04:38:18.766Z,19.80
2023-09-27T04:39:18.751Z,19.70
2023-09-27T04:40:18.846Z,18.90
2023-09-27T04:41:18.923Z,17.50
2023-09-27T04:42:18.728Z,18.50
2023-09-27T04:43:18.721Z,19.30
2023-09-27T04:44:18.724Z,17.80
2023-09-27T04:45:18.759Z,19.10
2023-09-27T04:46:18.747Z,17.20
2023-09-27T04:47:18.711Z,18.30
2023-09-27T04:48:18.800Z,17.40
2023-09-27T04:49:18.693Z,18.40
2023-09-27T04:50:18.733Z,16.30
2023-09-27T04:51:18.653Z,17.40
2023-09-27T04:52:18.649Z,17.30
2023-09-27T04:53:18.691Z,19.30
2023-09-27T04:54:18.656Z,17.70
2023-09-27T04:55:18.626Z,19.00
2023-09-27T04:56:18.647Z,18.70
2023-09-27T04:57:18.610Z,17.30
2023-09-27T04:58:18.600Z,17.30
2023-09-27T04:59:18.643Z,20.40
2023-09-27T05:00:18.586Z,16.50
2023-09-27T05:01:18.655Z,15.70
2023-09-27T05:02:18.599Z,16.10
2023-09-27T05:03:18.704Z,15.80
2023-09-27T05:04:18.610Z,13.40
2023-09-27T05:05:18.593Z,13.80
2023-09-27T05:06:18.546Z,13.10
2023-09-27T05:07:18.564Z,12.70
2023-09-27T05:08:18.558Z,12.70
2023-09-27T05:09:18.517Z,12.40
2023-09-27T05:10:18.511Z,12.50
2023-09-27T05:11:18.523Z,13.50
2023-09-27T05:12:18.496Z,13.00
2023-09-27T05:13:18.525Z,13.40
2023-09-27T05:14:18.528Z,13.10
2023-09-27T05:15:18.478Z,12.90
2023-09-27T05:16:18.487Z,13.40
2023-09-27T05:17:18.539Z,12.70
2023-09-27T05:18:18.505Z,13.70
2023-09-27T05:19:19.439Z,14.70
2023-09-27T05:20:18.469Z,12.70
2023-09-27T05:21:18.437Z,13.80
2023-09-27T05:22:18.445Z,13.70
2023-09-27T05:23:18.462Z,13.60
2023-09-27T05:24:18.402Z,14.20
2023-09-27T05:25:18.396Z,14.50
2023-09-27T05:26:18.415Z,13.30
2023-09-27T05:27:18.408Z,12.10
2023-09-27T05:28:18.363Z,13.70
2023-09-27T05:29:18.397Z,13.80
2023-09-27T05:30:18.351Z,15.80
2023-09-27T05:31:18.431Z,16.10
2023-09-27T05:32:18.408Z,15.00
2023-09-27T05:33:18.374Z,14.90
2023-09-27T05:34:18.327Z,15.20
2023-09-27T05:35:18.334Z,13.50
2023-09-27T05:36:18.339Z,13.40
2023-09-27T05:37:18.304Z,12.70
2023-09-27T05:38:18.313Z,12.30
2023-09-27T05:39:18.297Z,12.60
2023-09-27T05:40:18.283Z,12.10
2023-09-27T05:41:18.337Z,12.50
2023-09-27T05:42:18.264Z,12.50
2023-09-27T05:43:18.255Z,12.60
2023-09-27T05:44:18.266Z,12.40
2023-09-27T05:45:18.246Z,13.30
2023-09-27T05:46:18.327Z,13.40
2023-09-27T05:47:18.237Z,14.60
2023-09-27T05:48:18.278Z,16.20
2023-09-27T05:49:18.210Z,12.50
2023-09-27T05:50:18.231Z,12.40
2023-09-27T05:51:19.220Z,12.20
2023-09-27T05:52:18.221Z,12.50
2023-09-27T05:53:18.244Z,12.70
2023-09-27T05:54:18.175Z,12.50
2023-09-27T05:55:18.224Z,13.00
2023-09-27T05:56:18.187Z,13.70
2023-09-27T05:57:18.150Z,13.60
2023-09-27T05:58:18.137Z,13.50
2023-09-27T05:59:18.151Z,13.70
2023-09-27T06:00:18.156Z,14.00
2023-09-27T06:01:18.138Z,13.50
2023-09-27T06:02:18.189Z,14.00
2023-09-27T06:03:18.190Z,14.00
2023-09-27T06:04:18.199Z,14.20
2023-09-27T06:05:18.152Z,14.30
2023-09-27T06:06:18.079Z,13.40
2023-09-27T06:07:18.072Z,13.40
2023-09-27T06:08:18.097Z,13.20
2023-09-27T06:09:18.094Z,13.60
2023-09-27T06:10:18.056Z,13.80
2023-09-27T06:11:18.051Z,14.70
2023-09-27T06:12:18.028Z,15.70
2023-09-27T06:13:18.026Z,14.30
2023-09-27T06:14:18.073Z,16.10
2023-09-27T06:15:18.006Z,15.40
2023-09-27T06:16:18.045Z,16.90
2023-09-27T06:17:18.107Z,14.50
2023-09-27T06:18:18.071Z,14.30
2023-09-27T06:19:18.015Z,14.30
2023-09-27T06:20:18.014Z,15.40
2023-09-27T06:21:17.976Z,15.00
2023-09-27T06:22:17.969Z,13.90
2023-09-27T06:23:17.998Z,15.80
2023-09-27T06:24:17.933Z,14.60
2023-09-27T06:25:19.150Z,13.70
2023-09-27T06:26:18.970Z,13.80
2023-09-27T06:27:18.099Z,13.40
2023-09-27T06:28:17.936Z,14.90
2023-09-27T06:29:17.922Z,14.10
2023-09-27T06:30:17.894Z,13.90
2023-09-27T06:31:17.912Z,15.00
2023-09-27T06:32:17.923Z,13.80
2023-09-27T06:33:17.930Z,14.40
2023-09-27T06:34:17.862Z,14.50
2023-09-27T06:35:17.895Z,14.40
2023-09-27T06:36:17.860Z,14.50
2023-09-27T06:37:17.888Z,13.10
2023-09-27T06:38:17.915Z,13.40
2023-09-27T06:39:17.826Z,14.10
2023-09-27T06:40:17.910Z,15.40
2023-09-27T06:41:17.814Z,15.20
2023-09-27T06:42:17.839Z,14.70
2023-09-27T06:43:17.796Z,13.80
2023-09-27T06:44:17.828Z,13.00
2023-09-27T06:45:17.777Z,12.80
2023-09-27T06:46:18.000Z,12.50
2023-09-27T06:47:18.879Z,13.50
2023-09-27T06:48:17.874Z,14.90
2023-09-27T06:49:17.846Z,15.70
2023-09-27T06:50:17.783Z,14.00
2023-09-27T06:51:17.784Z,15.00
2023-09-27T06:52:17.752Z,13.70
2023-09-27T06:53:22.724Z,13.70
2023-09-27T06:54:19.760Z,13.00
2023-09-27T06:55:18.367Z,12.70
2023-09-27T06:56:17.727Z,12.30
2023-09-27T06:57:17.688Z,12.70
2023-09-27T06:58:17.679Z,16.20
2023-09-27T06:59:17.682Z,17.70
2023-09-27T07:00:17.667Z,18.00
2023-09-27T07:01:17.734Z,18.10
2023-09-27T07:02:17.685Z,19.00
2023-09-27T07:03:17.708Z,19.20
2023-09-27T07:04:17.704Z,20.30
2023-09-27T07:05:17.684Z,20.60
2023-09-27T07:06:17.640Z,21.00
2023-09-27T07:07:17.622Z,19.70
2023-09-27T07:08:17.633Z,19.90
2023-09-27T07:09:17.815Z,22.10
2023-09-27T07:10:17.646Z,23.10
2023-09-27T07:11:17.643Z,21.20
2023-09-27T07:12:17.586Z,20.40
2023-09-27T07:13:17.576Z,21.30
2023-09-27T07:14:17.573Z,21.30
2023-09-27T07:15:17.578Z,20.60
2023-09-27T07:16:17.568Z,26.50
2023-09-27T07:17:17.642Z,22.60
2023-09-27T07:18:17.580Z,23.20
2023-09-27T07:19:17.558Z,23.10
2023-09-27T07:20:17.646Z,20.20
2023-09-27T07:21:17.508Z,20.10
2023-09-27T07:22:17.505Z,20.90
2023-09-27T07:23:17.527Z,20.60
2023-09-27T07:24:17.525Z,20.50
2023-09-27T07:25:17.485Z,20.40
2023-09-27T07:26:17.562Z,22.70
2023-09-27T07:27:17.463Z,21.30
2023-09-27T07:28:17.459Z,20.40
2023-09-27T07:29:17.514Z,20.10
2023-09-27T07:30:17.542Z,20.30
2023-09-27T07:31:17.960Z,20.30
2023-09-27T07:32:17.474Z,20.20
2023-09-27T07:33:17.498Z,21.80
2023-09-27T07:34:17.432Z,21.70
2023-09-27T07:35:17.530Z,21.70
2023-09-27T07:36:17.385Z,22.60
2023-09-27T07:37:17.384Z,19.10
2023-09-27T07:38:17.421Z,20.50
2023-09-27T07:39:17.379Z,22.80
2023-09-27T07:40:17.377Z,20.10
2023-09-27T07:41:17.402Z,20.90
2023-09-27T07:42:17.408Z,23.60
2023-09-27T07:43:17.357Z,22.00
2023-09-27T07:44:17.377Z,22.00
2023-09-27T07:45:17.319Z,22.10
2023-09-27T07:46:17.341Z,21.70
2023-09-27T07:47:17.372Z,20.90
2023-09-27T07:48:17.394Z,20.10
2023-09-27T07:49:17.290Z,20.20
2023-09-27T07:50:17.398Z,19.70
2023-09-27T07:51:17.291Z,20.10
2023-09-27T07:52:17.301Z,21.20
2023-09-27T07:53:17.278Z,21.70
2023-09-27T07:54:17.316Z,21.50
2023-09-27T07:55:17.274Z,21.90
2023-09-27T07:56:17.310Z,22.80
2023-09-27T07:57:17.279Z,21.30
2023-09-27T07:58:17.224Z,20.10
2023-09-27T07:59:17.224Z,19.70
2023-09-27T08:00:18.253Z,20.80
2023-09-27T08:01:17.249Z,21.80
2023-09-27T08:02:17.252Z,22.60
2023-09-27T08:03:17.332Z,21.10
2023-09-27T08:04:17.313Z,21.70
2023-09-27T08:05:17.219Z,20.80
2023-09-27T08:06:17.162Z,20.80
2023-09-27T08:07:17.184Z,18.90
2023-09-27T08:08:17.181Z,18.20
2023-09-27T08:09:27.867Z,17.40
2023-09-27T08:10:21.808Z,18.30
2023-09-27T08:11:18.187Z,22.90
2023-09-27T08:12:17.141Z,21.40
2023-09-27T08:13:17.113Z,20.50
2023-09-27T08:14:17.165Z,20.00
2023-09-27T08:15:17.104Z,21.00
2023-09-27T08:16:17.142Z,19.00
2023-09-27T08:17:17.159Z,19.20
2023-09-27T08:18:17.183Z,18.80
2023-09-27T08:19:17.062Z,19.20
2023-09-27T08:20:17.112Z,18.40
2023-09-27T08:21:17.085Z,18.20
2023-09-27T08:22:17.043Z,18.80
2023-09-27T08:23:17.091Z,18.40
2023-09-27T08:24:17.035Z,17.80
2023-09-27T08:25:17.217Z,18.00
2023-09-27T08:26:17.082Z,18.00
2023-09-27T08:27:17.010Z,18.00
2023-09-27T08:28:16.984Z,18.80
2023-09-27T08:29:17.071Z,21.70
2023-09-27T08:30:17.010Z,18.80
2023-09-27T08:31:17.062Z,17.80
2023-09-27T08:32:16.988Z,18.20
2023-09-27T08:33:16.992Z,17.80
2023-09-27T08:34:16.942Z,17.90
2023-09-27T08:35:48.903Z,17.60
2023-09-27T08:36:16.937Z,17.60
2023-09-27T08:37:16.964Z,17.90
2023-09-27T08:38:16.930Z,18.60
2023-09-27T08:39:16.921Z,19.10
2023-09-27T08:40:16.938Z,18.60
2023-09-27T08:41:16.954Z,18.20
2023-09-27T08:42:16.901Z,18.40
2023-09-27T08:43:16.885Z,17.80
2023-09-27T08:44:16.959Z,17.90
2023-09-27T08:45:16.909Z,17.60
2023-09-27T08:46:16.934Z,18.10
2023-09-27T08:47:16.878Z,17.80
2023-09-27T08:48:16.856Z,18.50
2023-09-27T08:49:16.864Z,18.20
2023-09-27T08:50:16.869Z,17.90
2023-09-27T08:51:16.822Z,17.90
2023-09-27T08:52:16.808Z,18.70
2023-09-27T08:53:16.939Z,18.10
2023-09-27T08:54:16.838Z,18.70
2023-09-27T08:55:16.804Z,18.80
2023-09-27T08:56:16.818Z,19.10
2023-09-27T08:57:16.774Z,18.70
2023-09-27T08:58:17.737Z,18.10
2023-09-27T08:59:16.801Z,17.80
2023-09-27T09:00:16.818Z,17.20
2023-09-27T09:01:16.783Z,17.40
2023-09-27T09:02:16.780Z,17.80
2023-09-27T09:03:16.872Z,17.20
2023-09-27T09:04:16.850Z,16.60
2023-09-27T09:05:16.768Z,18.10
2023-09-27T09:06:16.704Z,17.30
2023-09-27T09:07:16.706Z,17.50
2023-09-27T09:08:21.206Z,17.50
2023-09-27T09:09:17.741Z,17.40
2023-09-27T09:10:16.677Z,16.80
2023-09-27T09:11:16.711Z,16.60
2023-09-27T09:12:16.678Z,16.20
2023-09-27T09:13:18.057Z,15.90
2023-09-27T09:14:16.674Z,15.70
2023-09-27T09:15:16.663Z,15.40
2023-09-27T09:16:16.678Z,15.60
2023-09-27T09:17:16.620Z,15.50
2023-09-27T09:18:16.748Z,15.30
2023-09-27T09:19:17.698Z,15.70
2023-09-27T09:20:16.677Z,15.10
2023-09-27T09:21:16.586Z,15.20
2023-09-27T09:22:16.631Z,15.00
2023-09-27T09:23:16.628Z,14.80
2023-09-27T09:24:16.565Z,14.80
2023-09-27T09:25:16.569Z,15.10
2023-09-27T09:26:16.581Z,15.30
2023-09-27T09:27:17.668Z,15.80
2023-09-27T09:28:17.528Z,14.90
2023-09-27T09:29:16.563Z,15.00
2023-09-27T09:30:16.518Z,15.40
2023-09-27T09:31:16.528Z,15.40
2023-09-27T09:32:16.549Z,15.70
2023-09-27T09:33:16.580Z,14.40
2023-09-27T09:34:16.488Z,14.20
2023-09-27T09:35:16.491Z,14.80
2023-09-27T09:36:16.491Z,13.80
2023-09-27T09:37:16.483Z,13.80
2023-09-27T09:38:16.484Z,13.40
2023-09-27T09:39:16.458Z,13.70
2023-09-27T09:40:16.631Z,13.90
2023-09-27T09:41:16.487Z,13.60
2023-09-27T09:42:16.440Z,13.50
2023-09-27T09:43:16.433Z,13.50
2023-09-27T09:44:16.462Z,13.80
2023-09-27T09:45:16.399Z,13.10
2023-09-27T09:46:16.468Z,13.50
2023-09-27T09:47:16.413Z,13.80
2023-09-27T09:48:16.379Z,13.80
2023-09-27T09:49:16.384Z,13.90
2023-09-27T09:50:16.438Z,13.10
2023-09-27T09:51:16.379Z,12.40
2023-09-27T09:52:16.355Z,12.50
2023-09-27T09:53:16.428Z,12.20
2023-09-27T09:54:16.328Z,13.00
2023-09-27T09:55:26.345Z,11.70
2023-09-27T09:57:28.022Z,13.60
2023-09-27T09:58:18.340Z,13.60
2023-09-27T09:59:16.323Z,13.70
2023-09-27T10:00:16.321Z,13.20
2023-09-27T10:01:16.321Z,12.50
2023-09-27T10:02:16.272Z,12.40
2023-09-27T10:03:16.287Z,12.20
2023-09-27T10:04:16.334Z,10.90
2023-09-27T10:05:16.349Z,11.90
2023-09-27T10:06:16.284Z,11.50
2023-09-27T10:07:16.238Z,11.90
2023-09-27T10:08:16.260Z,12.00
2023-09-27T10:09:17.038Z,12.00
2023-09-27T10:10:16.220Z,11.90
2023-09-27T10:11:16.256Z,11.70
2023-09-27T10:12:16.197Z,11.60
2023-09-27T10:13:16.199Z,11.30
2023-09-27T10:14:16.251Z,11.20
2023-09-27T10:15:16.194Z,11.40
2023-09-27T10:16:16.202Z,11.40
2023-09-27T10:17:16.206Z,11.20
2023-09-27T10:18:16.184Z,11.50
2023-09-27T10:19:16.166Z,11.10
2023-09-27T10:20:16.205Z,10.60
2023-09-27T10:21:16.124Z,11.20
2023-09-27T10:22:16.141Z,10.50
2023-09-27T10:23:16.172Z,10.30
2023-09-27T10:24:16.109Z,10.50
2023-09-27T10:25:16.094Z,10.10
2023-09-27T10:26:16.092Z,10.20
2023-09-27T10:27:16.089Z,9.90
2023-09-27T10:28:16.110Z,9.80
2023-09-27T10:29:16.088Z,9.50
2023-09-27T10:30:16.065Z,9.30
2023-09-27T10:31:16.099Z,9.10
2023-09-27T10:32:16.062Z,8.80
2023-09-27T10:33:16.221Z,8.90
2023-09-27T10:34:16.034Z,8.20
2023-09-27T10:35:16.041Z,8.50
2023-09-27T10:36:17.022Z,9.30
2023-09-27T10:37:19.304Z,9.30
2023-09-27T10:38:18.090Z,9.20
2023-09-27T10:39:15.992Z,8.70
2023-09-27T10:40:15.990Z,8.40
2023-09-27T10:41:16.061Z,8.80
2023-09-27T10:42:16.109Z,9.00
2023-09-27T10:43:15.998Z,9.20
2023-09-27T10:44:15.969Z,8.40
2023-09-27T10:45:15.958Z,9.10
2023-09-27T10:46:16.057Z,8.50
2023-09-27T10:47:15.968Z,8.00
2023-09-27T10:48:15.995Z,8.30
2023-09-27T10:49:17.309Z,8.20
2023-09-27T10:50:15.947Z,8.50
2023-09-27T10:51:16.072Z,8.30
2023-09-27T10:52:15.912Z,8.70
2023-09-27T10:53:16.882Z,7.80
2023-09-27T10:54:15.880Z,7.90
2023-09-27T10:55:15.915Z,7.40
2023-09-27T10:56:15.932Z,7.40
2023-09-27T10:57:15.950Z,8.60
2023-09-27T10:58:15.848Z,8.60
2023-09-27T10:59:15.892Z,8.30
2023-09-27T11:00:15.843Z,7.80
2023-09-27T11:01:15.869Z,7.80
2023-09-27T11:02:15.851Z,7.90
2023-09-27T11:03:15.882Z,8.10
2023-09-27T11:04:15.822Z,7.50
2023-09-27T11:05:15.834Z,7.70
2023-09-27T11:06:15.825Z,7.10
2023-09-27T11:07:15.782Z,7.20
2023-09-27T11:08:15.789Z,7.70
2023-09-27T11:09:15.780Z,7.20
2023-09-27T11:10:15.808Z,7.60
2023-09-27T11:11:15.785Z,8.00
2023-09-27T11:12:15.740Z,7.60
2023-09-27T11:13:15.735Z,7.50
2023-09-27T11:14:15.752Z,7.40
2023-09-27T11:15:15.748Z,7.50
2023-09-27T11:16:15.713Z,7.20
2023-09-27T11:17:15.738Z,7.30
2023-09-27T11:18:15.869Z,6.90
2023-09-27T11:19:15.693Z,7.20
2023-09-27T11:20:15.742Z,6.80
2023-09-27T11:21:15.682Z,5.90
2023-09-27T11:22:15.671Z,5.80
2023-09-27T11:23:15.713Z,6.20
2023-09-27T11:24:15.676Z,5.50
2023-09-27T11:25:15.673Z,6.00
2023-09-27T11:26:15.711Z,6.00
2023-09-27T11:27:15.636Z,5.80
2023-09-27T11:28:15.628Z,5.90
2023-09-27T11:29:15.720Z,5.90
2023-09-27T11:30:15.609Z,6.20
2023-09-27T11:31:15.635Z,6.30
2023-09-27T11:32:15.618Z,6.20
2023-09-27T11:33:15.595Z,6.30
2023-09-27T11:34:15.613Z,6.20
2023-09-27T11:35:15.613Z,6.00
2023-09-27T11:36:15.571Z,5.70
2023-09-27T11:37:15.599Z,5.90
2023-09-27T11:38:15.665Z,5.40
2023-09-27T11:39:15.583Z,5.60
2023-09-27T11:40:15.534Z,5.40
2023-09-27T11:41:15.653Z,5.60
2023-09-27T11:42:15.523Z,5.60
2023-09-27T11:43:15.539Z,5.60
2023-09-27T11:44:15.531Z,5.10
2023-09-27T11:45:15.493Z,5.30
2023-09-27T11:46:15.548Z,5.30
2023-09-27T11:47:15.511Z,5.20
2023-09-27T11:48:15.525Z,5.00
2023-09-27T11:49:15.472Z,4.90
2023-09-27T11:50:15.484Z,4.80
2023-09-27T11:51:15.499Z,5.00
2023-09-27T11:52:15.485Z,5.00
2023-09-27T11:53:15.607Z,5.00
2023-09-27T11:54:15.433Z,5.00
2023-09-27T11:55:15.461Z,4.80
2023-09-27T11:56:15.496Z,4.80
2023-09-27T11:57:15.433Z,4.80
2023-09-27T11:58:15.422Z,4.60
2023-09-27T11:59:15.482Z,4.70
2023-09-27T12:00:15.393Z,4.30
2023-09-27T12:01:15.406Z,4.50
2023-09-27T12:02:25.920Z,4.60
2023-09-27T12:03:17.465Z,4.70
2023-09-27T12:04:15.510Z,4.40
2023-09-27T12:05:16.535Z,4.60
2023-09-27T12:06:15.594Z,4.70
2023-09-27T12:07:15.575Z,4.80
2023-09-27T12:08:15.354Z,4.40
2023-09-27T12:09:15.307Z,5.10
2023-09-27T12:10:15.313Z,4.50
2023-09-27T12:11:15.312Z,4.70
2023-09-27T12:12:15.311Z,4.90
2023-09-27T12:13:15.278Z,4.60
2023-09-27T12:14:15.307Z,4.40
2023-09-27T12:15:15.273Z,4.40
2023-09-27T12:16:15.301Z,4.40
2023-09-27T12:17:15.312Z,4.20
2023-09-27T12:18:15.352Z,4.60
2023-09-27T12:19:15.226Z,4.50
2023-09-27T12:20:26.867Z,4.30
2023-09-27T12:21:17.275Z,4.10
2023-09-27T12:22:15.201Z,4.40
2023-09-27T12:23:15.219Z,4.10
2023-09-27T12:24:15.219Z,3.80
2023-09-27T12:25:15.195Z,4.40
2023-09-27T12:26:15.232Z,4.30
2023-09-27T12:27:16.192Z,4.60
2023-09-27T12:28:15.166Z,4.50
2023-09-27T12:29:15.211Z,4.40
2023-09-27T12:30:15.202Z,4.40
2023-09-27T12:31:15.200Z,4.30
2023-09-27T12:32:15.166Z,4.10
2023-09-27T12:33:15.366Z,4.30
2023-09-27T12:34:15.143Z,4.50
2023-09-27T12:35:15.167Z,4.20
2023-09-27T12:36:15.106Z,4.40
2023-09-27T12:37:15.096Z,4.20
2023-09-27T12:38:15.109Z,4.40
2023-09-27T12:39:15.989Z,4.80
2023-09-27T12:40:15.284Z,4.70
2023-09-27T12:41:15.095Z,4.40
2023-09-27T12:42:15.059Z,4.50
2023-09-27T12:43:15.070Z,4.70
2023-09-27T12:44:22.241Z,4.40
2023-09-27T12:45:17.054Z,4.60
2023-09-27T12:46:15.121Z,4.50
2023-09-27T12:47:15.037Z,4.50
2023-09-27T12:48:15.086Z,4.50
2023-09-27T12:49:15.480Z,4.40
2023-09-27T12:50:15.030Z,4.50
2023-09-27T12:51:14.999Z,4.60
2023-09-27T12:52:14.985Z,4.80
2023-09-27T12:53:14.992Z,4.40
2023-09-27T12:54:15.019Z,4.70
2023-09-27T12:55:15.081Z,4.70
2023-09-27T12:56:17.464Z,4.70
2023-09-27T12:57:15.959Z,4.80
2023-09-27T12:58:14.974Z,4.50